Time;durP1;ratioP1;P1;durP2;ratioP2;P2;SDS_P1;SDS_P2;PMS_P1;PMS_P2;Temp;Humidity;BMP_temperature;BMP_pressure;BME280_temperature;BME280_humidity;BME280_pressure;Samples;Min_cycle;Max_cycle;Signal;HPM_P1;HPM_P2
2024/04/02 00:02:50;;;;;;;1.70;1.37;;;10.00;98.00;;;;;;5010314;28;20476;-66
2024/04/02 00:05:23;;;;;;;2.90;1.37;;;9.90;98.00;;;;;;5012000;28;20510;-66
2024/04/02 00:07:53;;;;;;;1.60;1.40;;;9.90;98.00;;;;;;5188686;22;20504;-65
2024/04/02 00:10:19;;;;;;;1.73;1.37;;;9.90;98.00;;;;;;4992709;28;20458;-65
2024/04/02 00:12:46;;;;;;;2.07;1.57;;;9.90;98.00;;;;;;4992755;28;20471;-66
2024/04/02 00:15:13;;;;;;;2.17;1.50;;;9.80;98.00;;;;;;4992825;28;20488;-65
2024/04/02 00:17:40;;;;;;;1.93;1.50;;;9.70;98.00;;;;;;4992662;28;20518;-66
2024/04/02 00:20:09;;;;;;;1.50;1.40;;;9.80;98.00;;;;;;4997907;28;20467;-66
2024/04/02 00:22:36;;;;;;;2.33;1.23;;;9.80;98.00;;;;;;4999069;28;20535;-66
2024/04/02 00:25:06;;;;;;;3.40;1.43;;;9.80;98.00;;;;;;5013378;28;20460;-65
2024/04/02 00:27:58;;;;;;;2.00;1.50;;;9.90;98.00;;;;;;4998561;28;20923;-66
2024/04/02 00:30:36;;;;;;;1.60;1.40;;;9.90;98.00;;;;;;4998537;28;20454;-66
2024/04/02 00:33:05;;;;;;;1.77;1.40;;;9.90;98.00;;;;;;4998552;28;20792;-66
2024/04/02 00:35:33;;;;;;;1.80;1.40;;;9.80;98.00;;;;;;4998361;28;20898;-66
2024/04/02 00:38:00;;;;;;;1.60;1.40;;;9.80;98.00;;;;;;4998043;28;20466;-66
2024/04/02 00:40:28;;;;;;;2.07;1.40;;;9.80;98.00;;;;;;4998604;28;20543;-66
2024/04/02 00:43:06;;;;;;;2.53;1.50;;;9.80;98.00;;;;;;4998431;28;20456;-66
2024/04/02 00:45:34;;;;;;;1.43;1.27;;;9.90;98.00;;;;;;4998441;28;20499;-66
2024/04/02 00:48:07;;;;;;;1.30;1.30;;;9.80;98.00;;;;;;4998360;28;21042;-66
2024/04/02 00:50:34;;;;;;;1.80;1.30;;;9.80;98.00;;;;;;4998296;28;20466;-66
2024/04/02 00:53:01;;;;;;;2.40;1.40;;;9.80;98.00;;;;;;4998152;28;20460;-66
2024/04/02 00:55:29;;;;;;;1.47;1.30;;;9.90;98.00;;;;;;4997838;28;20497;-66
2024/04/02 00:57:56;;;;;;;2.03;1.43;;;9.90;98.00;;;;;;4997888;28;20491;-65
2024/04/02 01:00:22;;;;;;;1.40;1.30;;;9.90;98.00;;;;;;4997631;28;20464;-66
2024/04/02 01:02:51;;;;;;;1.57;1.37;;;9.90;98.00;;;;;;4997904;28;21030;-65
2024/04/02 01:05:20;;;;;;;2.23;1.60;;;10.00;98.00;;;;;;4996557;28;20490;-66
2024/04/02 01:07:46;;;;;;;2.80;1.40;;;9.90;98.00;;;;;;4997684;28;21045;-66
2024/04/02 01:10:14;;;;;;;1.30;1.30;;;9.90;98.00;;;;;;4997620;28;20470;-66
2024/04/02 01:12:42;;;;;;;1.87;1.40;;;9.80;98.00;;;;;;4997742;28;20463;-66
2024/04/02 01:15:09;;;;;;;1.80;1.40;;;9.90;98.00;;;;;;5012839;28;20484;-65
2024/04/02 01:17:37;;;;;;;2.53;1.43;;;9.90;98.00;;;;;;4997590;28;20466;-66
2024/04/02 01:20:05;;;;;;;2.00;1.43;;;9.90;98.00;;;;;;5012593;28;20456;-65
2024/04/02 01:22:34;;;;;;;4.73;1.60;;;9.90;98.00;;;;;;5012841;28;20465;-66
2024/04/02 01:25:00;;;;;;;1.50;1.23;;;9.90;98.00;;;;;;4997550;28;20458;-65
2024/04/02 01:27:29;;;;;;;1.50;1.40;;;9.80;98.00;;;;;;4997834;28;20463;-66
2024/04/02 01:29:56;;;;;;;1.57;1.40;;;9.80;98.00;;;;;;4996436;28;20464;-65
2024/04/02 01:32:24;;;;;;;1.73;1.30;;;9.90;98.00;;;;;;4994201;28;20466;-65
2024/04/02 01:34:50;;;;;;;2.33;1.37;;;9.80;98.00;;;;;;4994440;28;20519;-66
2024/04/02 01:37:17;;;;;;;1.50;1.30;;;9.80;98.00;;;;;;4994519;28;20458;-66
2024/04/02 01:39:51;;;;;;;1.53;1.40;;;9.80;98.00;;;;;;4994809;28;20474;-66
2024/04/02 01:42:18;;;;;;;1.90;1.57;;;9.80;98.00;;;;;;4995033;28;20798;-65
2024/04/02 01:44:45;;;;;;;1.53;1.40;;;9.70;98.00;;;;;;4994268;28;20453;-66
2024/04/02 01:47:12;;;;;;;1.80;1.40;;;9.70;98.00;;;;;;4994369;28;21047;-66
2024/04/02 01:49:39;;;;;;;2.20;1.43;;;9.70;98.00;;;;;;5009248;28;20458;-65
2024/04/02 01:52:06;;;;;;;1.67;1.33;;;9.70;98.00;;;;;;4994142;28;20967;-66
2024/04/02 01:54:32;;;;;;;3.67;1.50;;;9.70;98.00;;;;;;4994441;28;20454;-65
2024/04/02 01:57:00;;;;;;;5.70;1.60;;;9.70;98.00;;;;;;4994269;28;20491;-65
2024/04/02 01:59:26;;;;;;;3.23;1.33;;;9.70;98.00;;;;;;4994267;28;20539;-66
2024/04/02 02:01:55;;;;;;;1.60;1.40;;;9.70;98.00;;;;;;4994209;28;20475;-66
2024/04/02 02:04:21;;;;;;;5.00;1.50;;;9.60;98.00;;;;;;5009155;28;20464;-65
2024/04/02 02:06:48;;;;;;;1.40;1.27;;;9.60;98.00;;;;;;4994347;28;20525;-66
2024/04/02 02:09:14;;;;;;;1.30;1.30;;;9.60;98.00;;;;;;4994198;28;20454;-65
2024/04/02 02:11:41;;;;;;;1.40;1.30;;;9.60;98.00;;;;;;4993980;28;20554;-65
2024/04/02 02:14:07;;;;;;;1.53;1.40;;;9.60;98.00;;;;;;4993419;28;20738;-66
2024/04/02 02:16:34;;;;;;;1.40;1.33;;;9.60;98.00;;;;;;4993903;28;20782;-65
2024/04/02 02:19:01;;;;;;;2.37;1.37;;;9.60;98.00;;;;;;4993823;28;20467;-66
2024/04/02 02:21:28;;;;;;;3.23;2.00;;;9.60;98.00;;;;;;4993187;28;20495;-66
2024/04/02 02:23:55;;;;;;;1.50;1.30;;;9.60;98.00;;;;;;4993020;28;20459;-66
2024/04/02 02:26:22;;;;;;;3.00;1.60;;;9.60;98.00;;;;;;4993857;28;20542;-66
2024/04/02 02:28:48;;;;;;;1.43;1.40;;;9.70;98.00;;;;;;4993616;28;20451;-66
2024/04/02 02:31:18;;;;;;;3.20;1.60;;;9.70;98.00;;;;;;4993469;28;20478;-66
2024/04/02 02:33:47;;;;;;;1.97;1.50;;;9.70;98.00;;;;;;4993533;28;20479;-66
2024/04/02 02:36:23;;;;;;;1.77;1.33;;;9.70;98.00;;;;;;4993179;28;20862;-66
2024/04/02 02:38:50;;;;;;;1.93;1.23;;;9.70;98.00;;;;;;5008446;28;20462;-66
2024/04/02 02:41:18;;;;;;;2.90;1.43;;;9.70;98.00;;;;;;5008145;28;20458;-66
2024/04/02 02:43:44;;;;;;;1.60;1.40;;;9.80;98.00;;;;;;4993405;28;20792;-66
2024/04/02 02:46:11;;;;;;;1.50;1.50;;;9.80;98.00;;;;;;5008253;28;20461;-66
2024/04/02 02:48:38;;;;;;;2.23;1.50;;;9.80;98.00;;;;;;4992950;28;20467;-66
2024/04/02 02:51:06;;;;;;;2.27;1.60;;;9.80;98.00;;;;;;4993325;28;20845;-65
2024/04/02 02:53:33;;;;;;;3.57;1.40;;;9.80;98.00;;;;;;4993308;28;20543;-66
2024/04/02 02:56:00;;;;;;;1.63;1.27;;;9.70;98.00;;;;;;5008129;28;20515;-66
2024/04/02 02:58:27;;;;;;;1.50;1.30;;;9.60;98.00;;;;;;4993027;28;20458;-65
2024/04/02 03:00:54;;;;;;;1.87;1.50;;;9.50;98.00;;;;;;4992961;28;20464;-65
2024/04/02 03:03:20;;;;;;;2.13;1.40;;;9.60;98.00;;;;;;4993072;28;20458;-66
2024/04/02 03:05:55;;;;;;;1.63;1.50;;;9.60;98.00;;;;;;5007852;28;20471;-65
2024/04/02 03:08:22;;;;;;;1.53;1.30;;;9.50;98.00;;;;;;4992721;28;20484;-66
2024/04/02 03:10:56;;;;;;;1.47;1.37;;;9.60;98.00;;;;;;4991448;28;20463;-65
2024/04/02 03:13:24;;;;;;;1.70;1.50;;;9.50;98.00;;;;;;4992878;28;20470;-66
2024/04/02 03:15:52;;;;;;;1.43;1.30;;;9.50;98.00;;;;;;4992662;28;20485;-66
2024/04/02 03:18:18;;;;;;;1.40;1.40;;;9.50;98.00;;;;;;4992674;28;20466;-66
2024/04/02 03:20:45;;;;;;;1.47;1.27;;;9.50;98.00;;;;;;4992486;28;20500;-65
2024/04/02 03:23:11;;;;;;;2.13;1.40;;;9.60;98.00;;;;;;4992596;28;20460;-65
2024/04/02 03:25:40;;;;;;;2.10;1.53;;;9.60;98.00;;;;;;4992859;28;20460;-66
2024/04/02 03:28:07;;;;;;;1.27;1.23;;;9.50;98.00;;;;;;4992512;28;20582;-66
2024/04/02 03:30:43;;;;;;;1.67;1.40;;;9.40;98.00;;;;;;4992670;28;20489;-65
2024/04/02 03:33:09;;;;;;;1.40;1.30;;;9.40;98.00;;;;;;4992525;28;20729;-66
2024/04/02 03:35:38;;;;;;;1.60;1.40;;;9.50;98.00;;;;;;4992325;28;20496;-66
2024/04/02 03:38:05;;;;;;;1.87;1.33;;;9.50;98.00;;;;;;4992286;28;20969;-65
2024/04/02 03:40:40;;;;;;;1.47;1.37;;;9.50;98.00;;;;;;4991646;28;20458;-66
2024/04/02 03:43:08;;;;;;;1.40;1.30;;;9.50;98.00;;;;;;4992375;28;20545;-66
2024/04/02 03:45:40;;;;;;;1.57;1.37;;;9.50;98.00;;;;;;4992251;28;20460;-66
2024/04/02 03:48:07;;;;;;;1.53;1.30;;;9.40;98.00;;;;;;4992402;28;20553;-65
2024/04/02 03:50:36;;;;;;;2.23;1.47;;;9.50;98.00;;;;;;4992078;28;20467;-66
2024/04/02 03:53:02;;;;;;;1.40;1.27;;;9.50;98.00;;;;;;4992195;28;20520;-66
2024/04/02 03:55:34;;;;;;;1.30;1.30;;;9.50;98.00;;;;;;4991794;28;20517;-66
2024/04/02 03:58:00;;;;;;;1.80;1.40;;;9.50;98.00;;;;;;4991888;28;20520;-66
2024/04/02 04:00:29;;;;;;;2.13;1.60;;;9.40;98.00;;;;;;4992250;28;20513;-65
2024/04/02 04:02:55;;;;;;;1.43;1.20;;;9.50;98.00;;;;;;4992381;28;20941;-65
2024/04/02 04:05:22;;;;;;;8.13;1.50;;;9.50;98.00;;;;;;4992171;28;20460;-66
2024/04/02 04:07:50;;;;;;;1.40;1.30;;;9.40;98.00;;;;;;5193246;22;20566;-64
2024/04/02 04:10:17;;;;;;;3.23;1.43;;;9.30;98.00;;;;;;4991828;28;20449;-64
2024/04/02 04:12:44;;;;;;;1.50;1.30;;;9.30;98.00;;;;;;4992495;28;20487;-65
2024/04/02 04:15:10;;;;;;;2.13;1.47;;;9.30;98.00;;;;;;4992572;28;20456;-65
2024/04/02 04:17:39;;;;;;;1.40;1.20;;;9.40;98.00;;;;;;4992380;28;20496;-65
2024/04/02 04:20:07;;;;;;;2.40;1.47;;;9.30;98.00;;;;;;4992522;28;20460;-65
2024/04/02 04:22:34;;;;;;;1.83;1.33;;;9.30;98.00;;;;;;4992363;28;20461;-64
2024/04/02 04:25:02;;;;;;;2.57;1.40;;;9.40;98.00;;;;;;4992153;28;20482;-64
2024/04/02 04:27:32;;;;;;;1.30;1.20;;;9.40;98.00;;;;;;4992311;28;20939;-65
2024/04/02 04:29:59;;;;;;;1.50;1.30;;;9.30;98.00;;;;;;4992285;28;20983;-65
2024/04/02 04:32:26;;;;;;;1.40;1.20;;;9.30;98.00;;;;;;4992183;28;20516;-64
2024/04/02 04:34:53;;;;;;;1.60;1.27;;;9.20;98.00;;;;;;4991008;28;20981;-65
2024/04/02 04:37:20;;;;;;;1.67;1.33;;;9.20;98.00;;;;;;4992182;28;21063;-65
2024/04/02 04:39:46;;;;;;;1.40;1.30;;;9.20;98.00;;;;;;4991112;28;20513;-64
2024/04/02 04:42:14;;;;;;;2.90;1.30;;;9.10;98.00;;;;;;4992446;28;20510;-64
2024/04/02 04:44:43;;;;;;;1.80;1.20;;;9.20;98.00;;;;;;4992099;28;20836;-65
2024/04/02 04:47:11;;;;;;;1.70;1.30;;;9.20;98.00;;;;;;4992098;28;20461;-64
2024/04/02 04:49:37;;;;;;;2.37;1.20;;;9.20;98.00;;;;;;4992077;28;20464;-64
2024/04/02 04:52:07;;;;;;;1.93;1.50;;;9.20;98.00;;;;;;4992288;28;20465;-64
2024/04/02 04:54:33;;;;;;;1.43;1.30;;;9.20;98.00;;;;;;4990890;28;20462;-65
2024/04/02 04:57:07;;;;;;;1.97;1.37;;;9.20;98.00;;;;;;4991820;28;20495;-65
2024/04/02 04:59:33;;;;;;;1.30;1.20;;;9.10;98.00;;;;;;4988469;28;20922;-64
2024/04/02 05:02:00;;;;;;;1.70;1.23;;;9.10;98.00;;;;;;4991682;28;20533;-65
2024/04/02 05:04:26;;;;;;;1.60;1.40;;;9.10;98.00;;;;;;4992118;28;20454;-65
2024/04/02 05:06:53;;;;;;;5.73;1.67;;;9.10;98.00;;;;;;4995684;28;20986;-64
2024/04/02 05:09:21;;;;;;;1.30;1.20;;;9.10;98.00;;;;;;4995614;28;20452;-65
2024/04/02 05:11:48;;;;;;;1.73;1.40;;;9.10;98.00;;;;;;4995283;28;20552;-64
2024/04/02 05:14:14;;;;;;;1.60;1.50;;;9.10;98.00;;;;;;4995894;28;20483;-65
2024/04/02 05:16:42;;;;;;;2.40;2.00;;;9.10;98.00;;;;;;4995239;28;21191;-65
2024/04/02 05:19:08;;;;;;;1.60;1.30;;;9.20;98.00;;;;;;4994503;28;20541;-64
2024/04/02 05:21:35;;;;;;;1.90;1.40;;;9.20;98.00;;;;;;4995188;28;20489;-64
2024/04/02 05:24:03;;;;;;;1.70;1.40;;;9.20;98.00;;;;;;4995928;28;20456;-65
2024/04/02 05:26:32;;;;;;;4.60;1.40;;;9.20;98.00;;;;;;4995626;28;20468;-65
2024/04/02 05:28:58;;;;;;;1.40;1.30;;;9.20;98.00;;;;;;4995588;28;20458;-64
2024/04/02 05:31:25;;;;;;;1.67;1.30;;;9.20;98.00;;;;;;4995447;28;20502;-64
2024/04/02 05:33:53;;;;;;;1.63;1.37;;;9.20;98.00;;;;;;4995124;28;20467;-64
2024/04/02 05:36:20;;;;;;;1.40;1.30;;;9.20;98.00;;;;;;4995209;28;20522;-64
2024/04/02 05:38:46;;;;;;;1.60;1.30;;;9.20;98.00;;;;;;4994528;28;20456;-65
2024/04/02 05:41:13;;;;;;;1.90;1.20;;;9.20;98.00;;;;;;4994993;28;20467;-65
2024/04/02 05:43:40;;;;;;;1.97;1.50;;;9.20;98.00;;;;;;4995058;28;20861;-65
2024/04/02 05:46:07;;;;;;;1.70;1.47;;;9.20;98.00;;;;;;4994183;28;20549;-64
2024/04/02 05:48:36;;;;;;;1.40;1.30;;;9.20;98.00;;;;;;4994612;28;20467;-64
2024/04/02 05:51:04;;;;;;;1.57;1.40;;;9.20;98.00;;;;;;4993971;28;20551;-65
2024/04/02 05:53:30;;;;;;;1.60;1.27;;;9.20;98.00;;;;;;4994735;28;20894;-65
2024/04/02 05:55:59;;;;;;;1.60;1.33;;;9.30;98.00;;;;;;4994268;28;20551;-65
2024/04/02 05:58:26;;;;;;;2.53;1.30;;;9.20;98.00;;;;;;4994198;28;20533;-67
2024/04/02 06:01:03;;;;;;;2.47;1.50;;;9.30;98.00;;;;;;4994326;28;20806;-67
2024/04/02 06:03:29;;;;;;;4.40;1.20;;;9.30;98.00;;;;;;4994405;28;20458;-67
2024/04/02 06:05:56;;;;;;;1.87;1.37;;;9.40;98.00;;;;;;4994555;28;21032;-67
2024/04/02 06:08:22;;;;;;;1.67;1.20;;;9.40;98.00;;;;;;4994646;28;20951;-67
2024/04/02 06:10:50;;;;;;;1.30;1.10;;;9.40;98.00;;;;;;4994158;28;20470;-67
2024/04/02 06:13:16;;;;;;;2.10;1.20;;;9.50;98.00;;;;;;4994740;28;20951;-68
2024/04/02 06:15:43;;;;;;;1.73;1.30;;;9.50;98.00;;;;;;4994510;28;20470;-66
2024/04/02 06:18:10;;;;;;;3.03;1.33;;;9.50;98.00;;;;;;4993730;28;20562;-66
2024/04/02 06:20:38;;;;;;;1.50;1.30;;;9.50;98.00;;;;;;4994515;28;20543;-66
2024/04/02 06:23:04;;;;;;;2.03;1.37;;;9.50;98.00;;;;;;4994587;28;20456;-67
2024/04/02 06:25:31;;;;;;;1.30;1.20;;;9.50;98.00;;;;;;4993727;28;20471;-66
2024/04/02 06:27:57;;;;;;;1.30;1.27;;;9.50;98.00;;;;;;4993503;28;20474;-66
2024/04/02 06:30:24;;;;;;;1.50;1.10;;;9.50;98.00;;;;;;4994587;28;20799;-66
2024/04/02 06:32:50;;;;;;;2.43;1.20;;;9.50;98.00;;;;;;4993481;28;20464;-67
2024/04/02 06:35:19;;;;;;;1.20;1.20;;;9.60;98.00;;;;;;4994132;28;20530;-67
2024/04/02 06:37:45;;;;;;;1.40;1.10;;;9.60;98.00;;;;;;4993777;28;20499;-66
2024/04/02 06:40:12;;;;;;;1.30;1.07;;;9.70;98.00;;;;;;4994309;28;20472;-67
2024/04/02 06:42:39;;;;;;;1.67;1.30;;;9.80;98.00;;;;;;4994358;28;20452;-67
2024/04/02 06:45:07;;;;;;;1.40;1.20;;;9.80;98.00;;;;;;4994208;28;20565;-66
2024/04/02 06:47:33;;;;;;;1.63;1.20;;;9.80;98.00;;;;;;4993992;28;20492;-66
2024/04/02 06:50:00;;;;;;;1.30;1.20;;;9.90;98.00;;;;;;4993048;28;20480;-66
2024/04/02 06:52:27;;;;;;;2.67;1.20;;;9.90;98.00;;;;;;4994091;28;20522;-66
2024/04/02 06:54:55;;;;;;;1.60;1.20;;;10.00;98.00;;;;;;4994034;28;20475;-66
2024/04/02 06:57:21;;;;;;;1.47;1.23;;;10.00;98.00;;;;;;4994009;28;20869;-66
2024/04/02 06:59:48;;;;;;;1.90;1.20;;;10.00;98.00;;;;;;4993355;28;20829;-66
2024/04/02 07:02:14;;;;;;;1.30;1.30;;;10.00;98.00;;;;;;4993403;28;20514;-66
2024/04/02 07:04:41;;;;;;;1.20;1.10;;;9.90;98.00;;;;;;4993773;28;20875;-66
2024/04/02 07:07:07;;;;;;;1.20;1.10;;;9.90;98.00;;;;;;4993469;28;20464;-66
2024/04/02 07:09:36;;;;;;;2.80;1.20;;;9.90;98.00;;;;;;4993650;28;20499;-66
2024/04/02 07:12:03;;;;;;;1.20;1.10;;;9.90;98.00;;;;;;4993379;28;20468;-66
2024/04/02 07:14:30;;;;;;;1.20;1.10;;;9.90;98.00;;;;;;4993925;28;20540;-66
2024/04/02 07:16:56;;;;;;;1.20;1.10;;;9.80;98.00;;;;;;4993780;28;21014;-66
2024/04/02 07:19:24;;;;;;;1.43;1.20;;;9.80;98.00;;;;;;4992379;28;20883;-66
2024/04/02 07:21:53;;;;;;;1.97;1.10;;;9.80;98.00;;;;;;4992052;28;20945;-66
2024/04/02 07:24:20;;;;;;;1.60;1.10;;;9.90;98.00;;;;;;4993819;28;20463;-66
2024/04/02 07:26:48;;;;;;;1.40;1.10;;;10.00;98.00;;;;;;4993579;28;20933;-66
2024/04/02 07:29:14;;;;;;;1.20;1.03;;;10.00;98.00;;;;;;4992381;28;20458;-66
2024/04/02 07:31:42;;;;;;;1.20;1.10;;;10.00;98.00;;;;;;4992946;28;20518;-66
2024/04/02 07:34:10;;;;;;;1.30;1.20;;;10.10;98.00;;;;;;4992895;28;20452;-66
2024/04/02 07:36:37;;;;;;;1.20;1.10;;;10.10;98.00;;;;;;4993213;28;20491;-66
2024/04/02 07:39:05;;;;;;;1.83;1.30;;;10.00;98.00;;;;;;4993123;28;20454;-66
2024/04/02 07:41:33;;;;;;;1.30;1.20;;;10.10;98.00;;;;;;4992813;28;20468;-66
2024/04/02 07:44:00;;;;;;;1.20;1.10;;;10.20;98.00;;;;;;4992350;28;20467;-66
2024/04/02 07:46:29;;;;;;;1.30;1.17;;;10.30;98.00;;;;;;4993232;28;20888;-67
2024/04/02 07:48:55;;;;;;;1.30;1.10;;;10.40;98.00;;;;;;4992785;28;20452;-66
2024/04/02 07:51:22;;;;;;;1.50;1.13;;;10.50;98.00;;;;;;4992828;28;20468;-66
2024/04/02 07:53:48;;;;;;;3.03;1.20;;;10.70;98.00;;;;;;4992874;28;20455;-66
2024/04/02 07:56:15;;;;;;;2.20;1.10;;;10.70;98.00;;;;;;4991656;28;20555;-67
2024/04/02 07:58:41;;;;;;;2.13;1.17;;;11.00;98.00;;;;;;4992179;28;20873;-66
2024/04/02 08:01:11;;;;;;;2.27;1.27;;;11.10;98.00;;;;;;4991617;28;20492;-66
2024/04/02 08:03:38;;;;;;;1.83;1.33;;;11.20;98.00;;;;;;4991383;28;20457;-66
2024/04/02 08:06:05;;;;;;;1.70;1.20;;;11.30;98.00;;;;;;4990991;28;20465;-66
2024/04/02 08:08:31;;;;;;;4.83;1.30;;;11.40;98.00;;;;;;4991665;28;20457;-66
2024/04/02 08:10:58;;;;;;;1.80;1.10;;;11.30;98.00;;;;;;4991825;28;20472;-66
2024/04/02 08:13:27;;;;;;;1.50;1.20;;;11.20;98.00;;;;;;4992677;28;20470;-66
2024/04/02 08:15:54;;;;;;;1.73;1.30;;;11.30;98.00;;;;;;4991156;28;20485;-66
2024/04/02 08:18:23;;;;;;;5.07;2.10;;;11.60;98.00;;;;;;4990339;28;20517;-66
2024/04/02 08:20:51;;;;;;;1.87;1.40;;;11.70;98.00;;;;;;4992416;28;20497;-66
2024/04/02 08:23:17;;;;;;;1.83;1.30;;;11.70;98.00;;;;;;4992491;28;20465;-66
2024/04/02 08:25:44;;;;;;;1.73;1.17;;;11.80;98.00;;;;;;4992299;28;21044;-66
2024/04/02 08:28:10;;;;;;;3.37;1.30;;;11.90;98.00;;;;;;4992582;28;20457;-67
2024/04/02 08:30:37;;;;;;;3.63;1.67;;;12.00;98.00;;;;;;4991933;28;20473;-66
2024/04/02 08:33:04;;;;;;;3.70;1.40;;;12.10;98.00;;;;;;4991285;28;20464;-66
2024/04/02 08:35:32;;;;;;;3.20;1.20;;;12.10;98.00;;;;;;4992525;28;20457;-66
2024/04/02 08:37:58;;;;;;;3.30;1.20;;;12.00;98.00;;;;;;4992021;28;20482;-66
2024/04/02 08:40:32;;;;;;;1.97;1.40;;;11.90;98.00;;;;;;4993680;28;20465;-66
2024/04/02 08:43:03;;;;;;;3.63;1.50;;;12.00;98.00;;;;;;4996144;28;20449;-66
2024/04/02 08:45:31;;;;;;;4.53;1.70;;;12.20;98.00;;;;;;4995217;28;20462;-66
2024/04/02 08:47:57;;;;;;;2.57;1.40;;;12.40;98.00;;;;;;4995863;28;20454;-66
2024/04/02 08:53:02;;;;;;;2.00;1.40;;;12.20;98.00;;;;;;5066871;22;20588;-66
2024/04/02 08:55:28;;;;;;;3.20;1.37;;;11.90;98.00;;;;;;5011934;28;20452;-66
2024/04/02 08:57:57;;;;;;;2.00;1.30;;;11.90;98.00;;;;;;5034289;28;20519;-66
2024/04/02 09:00:24;;;;;;;3.53;1.50;;;12.00;98.00;;;;;;5034374;28;20461;-66
2024/04/02 09:02:53;;;;;;;3.43;1.40;;;12.20;98.00;;;;;;5034670;28;20518;-67
2024/04/02 09:05:22;;;;;;;1.97;1.20;;;12.20;98.00;;;;;;5034020;28;20534;-67
2024/04/02 09:07:49;;;;;;;2.00;1.33;;;12.20;98.00;;;;;;5024257;28;20477;-66
2024/04/02 09:10:16;;;;;;;2.90;1.50;;;12.20;98.00;;;;;;5022222;28;20453;-65
2024/04/02 09:12:43;;;;;;;1.20;1.10;;;12.10;98.00;;;;;;5032382;28;20953;-66
2024/04/02 09:15:12;;;;;;;5.00;1.80;;;12.20;98.00;;;;;;5033934;28;20529;-65
2024/04/02 09:17:40;;;;;;;2.60;1.30;;;12.30;98.00;;;;;;5033804;28;20491;-66
2024/04/02 09:20:07;;;;;;;1.87;1.40;;;12.30;98.00;;;;;;5034040;28;21076;-66
2024/04/02 09:22:34;;;;;;;3.00;1.43;;;12.40;98.00;;;;;;5034052;28;20468;-66
2024/04/02 09:25:01;;;;;;;4.17;1.40;;;12.50;98.00;;;;;;5033903;28;20464;-66
2024/04/02 09:27:29;;;;;;;1.87;1.20;;;12.50;98.00;;;;;;5033830;28;20461;-66
2024/04/02 09:29:56;;;;;;;1.30;1.20;;;12.50;98.00;;;;;;5033805;28;20514;-66
2024/04/02 09:32:25;;;;;;;2.23;1.40;;;12.20;98.00;;;;;;5034004;28;20468;-66
2024/04/02 09:34:53;;;;;;;2.07;1.40;;;11.80;98.00;;;;;;5033685;28;20465;-66
2024/04/02 09:37:30;;;;;;;1.50;1.30;;;11.50;98.00;;;;;;5033815;28;20487;-66
2024/04/02 09:39:58;;;;;;;2.70;1.57;;;11.30;98.00;;;;;;5033523;28;20466;-66
2024/04/02 09:42:26;;;;;;;2.20;1.30;;;11.20;98.00;;;;;;5014730;28;20547;-67
2024/04/02 09:44:55;;;;;;;1.73;1.33;;;11.30;98.00;;;;;;5012606;28;20459;-66
2024/04/02 09:47:24;;;;;;;1.43;1.30;;;11.40;98.00;;;;;;5013845;28;20476;-66
2024/04/02 09:49:52;;;;;;;1.83;1.30;;;11.80;98.00;;;;;;5028724;28;20451;-66
2024/04/02 09:52:19;;;;;;;2.17;1.40;;;12.10;98.00;;;;;;5012394;28;20472;-66
2024/04/02 09:54:46;;;;;;;3.87;1.33;;;12.40;98.00;;;;;;5013134;28;20460;-66
2024/04/02 09:57:13;;;;;;;2.17;1.40;;;12.60;98.00;;;;;;5013028;28;20497;-66
2024/04/02 09:59:40;;;;;;;4.03;1.90;;;12.80;98.00;;;;;;5013760;28;20570;-66
2024/04/02 10:02:14;;;;;;;2.13;1.33;;;13.10;98.00;;;;;;5013130;28;20527;-66
2024/04/02 10:04:41;;;;;;;2.03;1.47;;;13.30;98.00;;;;;;5012686;28;20519;-67
2024/04/02 10:07:20;;;;;;;1.90;1.40;;;13.30;98.00;;;;;;5018257;28;20458;-67
2024/04/02 10:09:55;;;;;;;1.40;1.40;;;13.40;98.00;;;;;;5031584;28;20463;-67
2024/04/02 10:12:26;;;;;;;1.47;1.30;;;13.60;98.00;;;;;;5033131;28;20465;-66
2024/04/02 10:14:52;;;;;;;1.60;1.30;;;13.90;98.00;;;;;;5032881;28;20460;-67
2024/04/02 10:17:22;;;;;;;4.03;1.50;;;14.30;98.00;;;;;;5032992;28;21239;-62
2024/04/02 10:19:50;;;;;;;2.93;1.80;;;14.40;98.00;;;;;;5032923;28;20464;-61
2024/04/02 10:22:28;;;;;;;2.70;1.40;;;14.50;98.00;;;;;;5033094;28;20459;-61
2024/04/02 10:25:06;;;;;;;3.67;1.40;;;14.50;98.00;;;;;;5033672;28;20446;-61
2024/04/02 10:27:36;;;;;;;1.93;1.30;;;14.40;98.00;;;;;;5033511;28;20457;-66
2024/04/02 10:30:14;;;;;;;3.53;1.43;;;14.30;98.00;;;;;;5048905;28;20457;-66
2024/04/02 10:32:44;;;;;;;4.80;1.37;;;14.40;98.00;;;;;;5033638;28;20485;-66
2024/04/02 10:35:23;;;;;;;2.80;1.47;;;14.60;98.00;;;;;;5033307;28;20458;-66
2024/04/02 10:37:52;;;;;;;3.50;1.20;;;14.40;98.00;;;;;;5018329;28;20577;-66
2024/04/02 10:40:19;;;;;;;2.47;1.30;;;14.30;98.00;;;;;;5013289;28;20457;-66
2024/04/02 10:42:47;;;;;;;4.40;1.50;;;14.10;98.00;;;;;;5013520;28;20467;-66
2024/04/02 10:45:14;;;;;;;3.30;1.50;;;13.90;98.00;;;;;;5014191;28;20469;-66
2024/04/02 10:47:47;;;;;;;1.87;1.50;;;13.70;98.00;;;;;;5014159;28;20465;-66
2024/04/02 10:50:14;;;;;;;3.23;1.53;;;13.40;98.00;;;;;;5013983;28;20455;-66
2024/04/02 10:52:41;;;;;;;6.37;1.73;;;13.60;98.00;;;;;;5013491;28;21050;-65
2024/04/02 10:55:07;;;;;;;2.03;1.40;;;13.90;98.00;;;;;;5013410;28;20529;-65
2024/04/02 10:57:36;;;;;;;5.93;1.60;;;14.10;98.00;;;;;;5013547;28;20503;-65
2024/04/02 11:00:04;;;;;;;1.70;1.27;;;14.00;98.00;;;;;;5013231;28;20470;-66
2024/04/02 11:02:32;;;;;;;1.70;1.30;;;13.70;98.00;;;;;;5028289;28;20470;-65
2024/04/02 11:05:00;;;;;;;1.73;1.23;;;13.50;98.00;;;;;;5013358;28;20457;-65
2024/04/02 11:07:28;;;;;;;2.33;1.40;;;13.40;98.00;;;;;;5028684;28;20472;-66
2024/04/02 11:09:55;;;;;;;4.83;1.60;;;13.30;98.00;;;;;;5013207;28;20492;-65
2024/04/02 11:12:23;;;;;;;3.60;1.80;;;13.30;98.00;;;;;;5012927;28;21000;-66
2024/04/02 11:14:49;;;;;;;1.60;1.20;;;13.30;98.00;;;;;;5013127;28;20457;-65
2024/04/02 11:17:16;;;;;;;1.53;1.20;;;13.40;98.00;;;;;;5013030;28;20513;-65
2024/04/02 11:19:42;;;;;;;1.30;1.13;;;13.90;98.00;;;;;;5012897;28;20832;-66
2024/04/02 11:25:03;;;;;;;1.53;1.17;;;14.40;98.00;;;;;;5012890;28;20446;-66
2024/04/02 11:27:31;;;;;;;1.50;1.23;;;14.60;98.00;;;;;;5012374;28;20450;-66
2024/04/02 11:29:58;;;;;;;1.50;1.20;;;15.20;98.00;;;;;;5012614;28;20462;-67
2024/04/02 11:32:26;;;;;;;1.90;1.30;;;15.70;98.00;;;;;;5013001;28;20479;-68
2024/04/02 11:35:01;;;;;;;2.07;1.40;;;15.90;98.00;;;;;;5012664;28;20554;-68
2024/04/02 11:37:29;;;;;;;1.40;1.30;;;16.20;98.00;;;;;;5012490;28;20545;-66
2024/04/02 11:39:57;;;;;;;3.97;1.40;;;16.50;98.00;;;;;;5012777;28;20466;-65
2024/04/02 11:42:24;;;;;;;1.73;1.33;;;16.60;98.00;;;;;;5012683;28;20451;-66
2024/04/02 11:44:57;;;;;;;1.67;1.30;;;16.70;97.60;;;;;;5012449;28;20463;-66
2024/04/02 11:47:24;;;;;;;3.33;1.40;;;16.20;98.00;;;;;;5012421;28;20937;-65
2024/04/02 11:49:51;;;;;;;1.73;1.37;;;15.70;98.00;;;;;;5012675;28;20992;-65
2024/04/02 11:52:17;;;;;;;2.50;1.70;;;15.30;98.00;;;;;;5012388;28;20463;-66
2024/04/02 11:54:56;;;;;;;4.17;1.60;;;15.10;98.00;;;;;;5012367;28;20466;-66
2024/04/02 12:00:11;;;;;;;4.80;2.50;;;14.20;98.00;;;;;;5012472;28;20943;-65
2024/04/02 12:02:40;;;;;;;5.47;2.50;;;13.90;98.00;;;;;;5012426;28;20457;-65
2024/04/02 12:05:08;;;;;;;3.17;1.70;;;13.50;98.00;;;;;;5012446;28;20543;-66
2024/04/02 12:07:35;;;;;;;1.50;1.20;;;13.20;98.00;;;;;;5012599;28;20514;-68
2024/04/02 12:10:12;;;;;;;1.90;1.20;;;13.00;98.00;;;;;;5012297;28;20463;-68
2024/04/02 12:12:38;;;;;;;1.90;1.50;;;14.00;98.00;;;;;;5011697;28;20458;-69
2024/04/02 12:15:07;;;;;;;1.93;1.30;;;14.90;98.00;;;;;;5011565;28;20470;-69
2024/04/02 12:17:34;;;;;;;2.27;1.30;;;15.60;98.00;;;;;;5012312;28;20510;-68
2024/04/02 12:20:02;;;;;;;3.50;1.40;;;16.20;98.00;;;;;;5012378;28;20467;-69
2024/04/02 12:22:28;;;;;;;1.80;1.20;;;16.10;98.00;;;;;;5012294;28;20462;-69
2024/04/02 12:24:55;;;;;;;1.80;1.50;;;15.90;98.00;;;;;;5011972;28;20460;-68
2024/04/02 12:27:23;;;;;;;2.90;1.80;;;15.70;98.00;;;;;;5011933;28;20467;-69
2024/04/02 12:30:00;;;;;;;1.50;1.27;;;15.50;98.00;;;;;;5011541;28;20551;-68
2024/04/02 12:32:28;;;;;;;8.07;1.50;;;15.70;98.00;;;;;;5010746;28;20463;-68
2024/04/02 12:34:56;;;;;;;3.80;1.37;;;16.30;98.00;;;;;;4990874;28;20456;-68
2024/04/02 12:37:22;;;;;;;2.93;1.60;;;16.70;98.00;;;;;;5028453;28;20493;-69
2024/04/02 12:39:49;;;;;;;2.90;1.50;;;16.90;98.00;;;;;;5031934;28;20963;-68
2024/04/02 12:42:16;;;;;;;2.67;1.40;;;17.10;98.00;;;;;;5031801;28;20466;-69
2024/04/02 12:44:45;;;;;;;1.97;1.30;;;16.70;98.00;;;;;;5030903;28;20546;-68
2024/04/02 12:47:11;;;;;;;2.80;1.47;;;16.30;98.00;;;;;;5025296;28;20448;-68
2024/04/02 12:49:39;;;;;;;1.83;1.40;;;16.00;98.00;;;;;;5026843;28;20468;-68
2024/04/02 12:52:05;;;;;;;10.00;1.40;;;16.10;98.00;;;;;;5011920;28;20812;-68
2024/04/02 12:54:32;;;;;;;3.07;1.50;;;16.70;98.00;;;;;;5011597;28;20500;-68
2024/04/02 12:56:59;;;;;;;3.43;1.40;;;17.00;98.00;;;;;;5011795;28;20538;-64
2024/04/02 12:59:27;;;;;;;2.50;1.43;;;17.50;98.00;;;;;;5233667;22;20499;-67
2024/04/02 13:01:55;;;;;;;1.80;1.20;;;17.80;96.60;;;;;;5051613;28;20461;-68
2024/04/02 13:04:23;;;;;;;2.63;1.30;;;18.10;95.50;;;;;;5050257;28;20500;-68
2024/04/02 13:06:49;;;;;;;1.40;1.30;;;18.40;93.30;;;;;;5050943;28;20521;-68